.
WxDataArchive / Data Records for 2007-01-10
2007-01-09 January 2007 2007-01-11

Data Records for Wednesday, 10 January 2007

Time	Temp	Chill	HIndex	Humid	Dewpt	 Wind 	HiWind	WindDir	Rain 	Barom 
-----	----	-----	------	-----	-----	------	------	-------	-----	----- 
00:00	28.2	28.2	28.2	57	14.9	1	3	315	0.00	30.175 
00:05	28.2	28.2	28.2	57	14.9	2	5	315	0.00	30.175 
00:10	28.1	28.1	28.1	57	14.9	1	4	292	0.00	30.175 
00:15	28.1	28.1	28.1	58	15.3	1	3	292	0.00	30.176 
00:20	28.1	28.1	28.1	58	15.3	2	5	292	0.00	30.176 
00:25	28.1	28.1	28.1	58	15.3	2	4	338	0.00	30.176 
00:30	28.1	28.1	28.1	58	15.3	2	9	315	0.00	30.178 
00:35	27.9	27.9	27.9	59	15.5	2	6	270	0.00	30.178 
00:40	27.8	27.8	27.8	61	16.1	1	5	292	0.00	30.178 
00:45	27.6	27.6	27.6	62	16.3	2	4	270	0.00	30.178 
00:50	27.5	27.5	27.5	64	16.9	1	4	270	0.00	30.178 
00:55	27.5	27.5	27.5	65	17.3	2	3	270	0.00	30.178 
01:00	27.3	27.3	27.3	65	17.1	1	4	292	0.00	30.181 
01:05	27.3	27.3	27.3	66	17.5	1	4	270	0.00	30.181 
01:10	27.5	27.5	27.5	65	17.3	2	5	270	0.00	30.181 
01:15	27.5	27.5	27.5	65	17.3	1	4	270	0.00	30.187 
01:20	27.3	27.3	27.3	65	17.1	2	5	270	0.00	30.187 
01:25	27.3	27.3	27.3	64	16.8	2	6	338	0.00	30.187 
01:30	27.2	27.2	27.2	64	16.7	2	7	270	0.00	30.189 
01:35	27.0	27.0	27.0	64	16.5	2	6	292	0.00	30.189 
01:40	26.9	26.9	26.9	65	16.7	2	6	292	0.00	30.189 
01:45	26.7	26.7	26.7	65	16.5	2	5	270	0.00	30.194 
01:50	26.6	26.6	26.6	65	16.4	2	6	270	0.00	30.194 
01:55	26.6	26.6	26.6	66	16.8	2	6	270	0.00	30.194 
02:00	26.4	26.4	26.4	66	16.6	2	4	248	0.00	30.198 
02:05	26.4	26.4	26.4	68	17.3	1	4	292	0.00	30.198 
02:10	26.3	26.3	26.3	68	17.2	2	6	270	0.00	30.198 
02:15	26.3	26.3	26.3	68	17.2	1	3	270	0.00	30.208 
02:20	26.3	26.3	26.3	69	17.5	1	5	270	0.00	30.208 
02:25	26.3	26.3	26.3	69	17.5	2	4	270	0.00	30.208 
02:30	26.3	26.3	26.3	70	17.9	2	7	270	0.00	30.212 
02:35	26.1	26.1	26.1	70	17.7	1	5	270	0.00	30.212 
02:40	26.1	26.1	26.1	71	18.0	2	4	270	0.00	30.212 
02:45	26.0	26.0	26.0	71	17.9	1	3	248	0.00	30.223 
02:50	26.0	26.0	26.0	72	18.2	2	4	270	0.00	30.223 
02:55	26.0	26.0	26.0	72	18.2	1	3	292	0.00	30.223 
03:00	25.8	25.8	25.8	72	18.0	1	3	292	0.00	30.230 
03:05	25.8	25.8	25.8	72	18.0	2	5	270	0.00	30.230 
03:10	25.7	25.7	25.7	73	18.3	2	5	270	0.00	30.230 
03:15	25.6	25.6	25.6	73	18.2	1	3	270	0.00	30.230 
03:20	25.4	25.4	25.4	74	18.3	1	4	270	0.00	30.230 
03:25	25.4	25.4	25.4	74	18.3	1	3	270	0.00	30.230 
03:30	25.4	25.4	25.4	74	18.3	1	4	248	0.00	30.237 
03:35	25.4	25.4	25.4	74	18.3	1	4	270	0.00	30.237 
03:40	25.4	25.4	25.4	74	18.3	1	3	248	0.00	30.237 
03:45	25.6	25.6	25.6	74	18.5	1	3	270	0.00	30.241 
03:50	25.6	25.6	25.6	73	18.2	2	6	270	0.00	30.241 
03:55	25.7	25.7	25.7	72	17.9	1	3	315	0.00	30.241 
04:00	25.7	25.7	25.7	72	17.9	1	4	270	0.00	30.241 
04:05	25.7	25.7	25.7	72	17.9	1	4	270	0.00	30.241 
04:10	25.6	25.6	25.6	72	17.8	1	4	270	0.00	30.241 
04:15	25.4	25.4	25.4	72	17.7	0	3	270	0.00	30.243 
04:20	25.1	25.1	25.1	72	17.4	0	3	248	0.00	30.243 
04:25	25.0	25.0	25.0	70	16.6	1	3	248	0.00	30.243 
04:30	24.8	24.8	24.8	69	16.1	1	3	270	0.00	30.248 
04:35	24.8	24.8	24.8	68	15.8	0	1	270	0.00	30.248 
04:40	24.7	24.7	24.7	66	15.0	1	3	270	0.00	30.248 
04:45	24.7	24.7	24.7	63	13.9	1	5	270	0.00	30.258 
04:50	24.7	24.7	24.7	63	13.9	1	3	270	0.00	30.258 
04:55	24.7	24.7	24.7	62	13.6	1	4	270	0.00	30.258 
05:00	24.7	24.7	24.7	62	13.6	1	4	270	0.00	30.262 
05:05	24.7	24.7	24.7	62	13.6	1	3	248	0.00	30.262 
05:10	24.7	24.7	24.7	62	13.6	1	2	248	0.00	30.262 
05:15	24.5	24.5	24.5	63	13.7	1	2	248	0.00	30.265 
05:20	24.5	24.5	24.5	62	13.4	1	3	270	0.00	30.265 
05:25	24.5	24.5	24.5	62	13.4	1	4	270	0.00	30.265 
05:30	24.4	24.4	24.4	63	13.6	0	3	270	0.00	30.271 
05:35	24.4	24.4	24.4	63	13.6	1	2	248	0.00	30.271 
05:40	24.2	24.2	24.2	63	13.4	1	2	225	0.00	30.271 
05:45	24.1	24.1	24.1	64	13.7	1	2	292	0.00	30.276 
05:50	24.1	24.1	24.1	64	13.7	0	2	270	0.00	30.276 
05:55	24.1	24.1	24.1	63	13.4	1	4	270	0.00	30.276 
06:00	24.1	24.1	24.1	64	13.7	1	6	270	0.00	30.280 
06:05	23.9	23.9	23.9	64	13.5	0	1	270	0.00	30.280 
06:10	23.8	23.8	23.8	64	13.4	0	2	270	0.00	30.280 
06:15	23.6	23.6	23.6	65	13.6	0	2	248	0.00	30.291 
06:20	23.6	23.6	23.6	65	13.6	1	3	248	0.00	30.291 
06:25	23.6	23.6	23.6	65	13.6	0	1	248	0.00	30.291 
06:30	23.6	23.6	23.6	65	13.6	0	2	248	0.00	30.300 
06:35	23.6	23.6	23.6	65	13.6	0	2	248	0.00	30.300 
06:40	23.6	23.6	23.6	65	13.6	0	2	248	0.00	30.300 
06:45	23.6	23.6	23.6	65	13.6	1	3	270	0.00	30.308 
06:50	23.6	23.6	23.6	65	13.6	0	3	270	0.00	30.308 
06:55	23.8	23.8	23.8	64	13.4	1	4	270	0.00	30.308 
07:00	23.8	23.8	23.8	64	13.4	1	3	270	0.00	30.316 
07:05	23.8	23.8	23.8	64	13.4	0	3	248	0.00	30.316 
07:10	23.8	23.8	23.8	64	13.4	0	2	248	0.00	30.316 
07:15	23.8	23.8	23.8	64	13.4	0	3	248	0.00	30.322 
07:20	23.9	23.9	23.9	64	13.5	1	4	270	0.00	30.322 
07:25	23.9	23.9	23.9	64	13.5	1	3	270	0.00	30.322 
07:30	23.9	23.9	23.9	65	13.9	0	2	270	0.00	30.323 
07:35	23.8	23.8	23.8	65	13.8	0	2	270	0.00	30.323 
07:40	23.9	23.9	23.9	64	13.5	1	4	270	0.00	30.323 
07:45	23.8	23.8	23.8	64	13.4	0	2	248	0.00	30.324 
07:50	23.6	23.6	23.6	65	13.6	0	2	248	0.00	30.324 
07:55	23.5	23.5	23.5	65	13.5	0	1	248	0.00	30.324 
08:00	23.3	23.3	23.3	66	13.6	0	1	248	0.00	30.326 
08:05	23.2	23.2	23.2	67	13.9	0	1	248	0.00	30.326 
08:10	23.0	23.0	23.0	68	14.0	0	1	248	0.00	30.326 
08:15	23.0	23.0	23.0	68	14.0	0	1	248	0.00	30.336 
08:20	23.0	23.0	23.0	69	14.4	0	2	248	0.00	30.336 
08:25	23.0	23.0	23.0	69	14.4	0	2	270	0.00	30.336 
08:30	23.2	23.2	23.2	69	14.6	0	2	248	0.00	30.342 
08:35	23.3	23.3	23.3	69	14.7	1	2	248	0.00	30.342 
08:40	23.3	23.3	23.3	71	15.3	1	4	248	0.00	30.342 
08:45	23.2	23.2	23.2	72	15.5	1	3	248	0.00	30.352 
08:50	23.0	23.0	23.0	72	15.3	1	4	248	0.00	30.352 
08:55	23.0	23.0	23.0	75	16.3	1	4	248	0.00	30.352 
09:00	23.0	23.0	23.0	73	15.7	1	4	248	0.00	30.357 
09:05	23.2	23.2	23.2	73	15.9	1	3	248	0.00	30.357 
09:10	23.3	23.3	23.3	73	15.9	2	5	248	0.00	30.357 
09:15	23.5	23.5	23.5	72	15.8	2	6	248	0.00	30.371 
09:20	23.6	23.6	23.6	72	15.9	2	4	248	0.00	30.371 
09:25	23.8	23.8	23.8	71	15.8	2	3	270	0.00	30.371 
09:30	23.9	23.9	23.9	71	15.9	1	5	270	0.00	30.383 
09:35	24.1	24.1	24.1	71	16.1	2	6	248	0.00	30.383 
09:40	24.4	24.4	24.4	70	16.0	1	5	270	0.00	30.383 
09:45	24.5	24.5	24.5	69	15.8	2	7	248	0.00	30.387 
09:50	24.7	24.7	24.7	69	16.0	1	5	225	0.00	30.387 
09:55	24.8	24.8	24.8	69	16.1	2	9	248	0.00	30.387 
10:00	25.0	25.0	25.0	68	16.0	2	6	248	0.00	30.392 
10:05	25.3	25.3	25.3	69	16.6	1	4	270	0.00	30.392 
10:10	25.4	25.4	25.4	67	16.0	2	5	248	0.00	30.392 
10:15	25.6	25.6	25.6	68	16.5	1	5	248	0.00	30.396 
10:20	25.8	25.8	25.8	68	16.7	1	6	248	0.00	30.396 
10:25	26.3	26.3	26.3	65	16.2	2	6	248	0.00	30.396 
10:30	26.3	26.3	26.3	65	16.2	2	6	270	0.00	30.399 
10:35	26.1	26.1	26.1	65	16.0	3	8	248	0.00	30.399 
10:40	26.3	26.3	26.3	64	15.8	2	10	248	0.00	30.399 
10:45	26.4	26.4	26.4	64	15.9	2	6	248	0.00	30.402 
10:50	26.7	26.7	26.7	63	15.8	2	7	248	0.00	30.402 
10:55	27.0	27.0	27.0	61	15.4	2	4	248	0.00	30.402 
11:00	27.3	27.3	27.3	60	15.3	2	3	248	0.00	30.401 
11:05	27.5	27.5	27.5	60	15.5	1	3	270	0.00	30.401 
11:10	27.6	27.6	27.6	61	15.9	2	7	270	0.00	30.401 
11:15	27.5	27.5	27.5	59	15.1	2	6	270	0.00	30.398 
11:20	27.5	27.5	27.5	61	15.8	1	5	248	0.00	30.398 
11:25	27.8	27.8	27.8	60	15.7	1	7	248	0.00	30.398 
11:30	27.8	27.8	27.8	60	15.7	2	7	248	0.00	30.386 
11:35	27.9	27.9	27.9	59	15.5	2	6	248	0.00	30.386 
11:40	28.1	28.1	28.1	59	15.6	1	5	248	0.00	30.386 
11:45	28.1	28.1	28.1	59	15.6	2	6	248	0.00	30.384 
11:50	28.1	28.1	28.1	59	15.6	3	6	248	0.00	30.384 
11:55	28.2	28.2	28.2	59	15.7	2	5	248	0.00	30.384 
12:00	28.1	28.1	28.1	58	15.3	3	9	248	0.00	30.377 
12:05	28.2	28.2	28.2	59	15.7	2	6	248	0.00	30.377 
12:10	28.2	28.2	28.2	59	15.7	3	7	248	0.00	30.377 
12:15	28.4	28.4	28.4	59	15.9	1	3	248	0.00	30.370 
12:20	28.4	28.4	28.4	58	15.5	2	6	248	0.00	30.370 
12:25	28.5	28.5	28.5	60	16.4	1	4	248	0.00	30.370 
12:30	28.8	28.8	28.8	58	15.9	1	4	248	0.00	30.358 
12:35	29.0	29.0	29.0	59	16.5	0	2	248	0.00	30.358 
12:40	29.1	29.1	29.1	58	16.2	1	4	248	0.00	30.358 
12:45	29.3	29.3	29.3	58	16.4	1	4	248	0.00	30.355 
12:50	29.4	29.4	29.4	57	16.1	1	4	248	0.00	30.355 
12:55	29.7	29.7	29.7	59	17.1	1	4	270	0.00	30.355 
13:00	29.8	29.8	29.8	58	16.8	1	3	248	0.00	30.356 
13:05	30.0	30.0	30.0	57	16.6	2	6	248	0.00	30.356 
13:10	30.0	30.0	30.0	57	16.6	2	4	270	0.00	30.356 
13:15	30.1	30.1	30.1	55	15.9	3	6	248	0.00	30.354 
13:20	30.1	30.1	30.1	58	17.1	1	5	248	0.00	30.354 
13:25	30.4	30.4	30.4	56	16.6	1	5	248	0.00	30.354 
13:30	30.6	30.6	30.6	56	16.8	1	5	248	0.00	30.350 
13:35	30.4	30.4	30.4	55	16.2	1	4	248	0.00	30.350 
13:40	30.3	30.3	30.3	55	16.1	2	5	248	0.00	30.350 
13:45	30.0	30.0	30.0	54	15.4	2	6	248	0.00	30.349 
13:50	30.0	30.0	30.0	57	16.6	2	5	248	0.00	30.349 
13:55	29.5	29.5	29.5	56	15.8	2	6	248	0.00	30.349 
14:00	29.4	29.4	29.4	57	16.1	1	4	248	0.00	30.342 
14:05	29.5	29.5	29.5	57	16.2	2	6	248	0.00	30.342 
14:10	29.7	29.7	29.7	56	15.9	2	7	248	0.00	30.342 
14:15	30.3	30.3	30.3	57	16.9	1	4	270	0.00	30.338 
14:20	30.6	30.6	30.6	54	16.0	2	5	248	0.00	30.338 
14:25	30.6	30.6	30.6	54	16.0	1	4	248	0.00	30.338 
14:30	30.9	30.9	30.9	53	15.8	1	5	248	0.00	30.336 
14:35	31.0	31.0	31.0	52	15.5	2	7	248	0.00	30.336 
14:40	30.9	30.9	30.9	52	15.4	2	5	248	0.00	30.336 
14:45	31.2	31.2	31.2	52	15.6	2	9	270	0.00	30.338 
14:50	31.5	31.5	31.5	55	17.2	1	4	248	0.00	30.338 
14:55	31.6	31.6	31.6	53	16.5	2	5	248	0.00	30.338 
15:00	31.8	31.8	31.8	53	16.6	2	6	248	0.00	30.330 
15:05	31.8	31.8	31.8	53	16.6	3	6	248	0.00	30.330 
15:10	31.6	31.6	31.6	54	16.9	2	5	248	0.00	30.330 
15:15	31.5	31.5	31.5	52	15.9	2	5	248	0.00	30.332 
15:20	31.2	31.2	31.2	51	15.2	3	9	248	0.00	30.332 
15:25	31.0	31.0	31.0	53	15.9	2	10	248	0.00	30.332 
15:30	31.3	31.3	31.3	52	15.7	1	4	248	0.00	30.336 
15:35	31.5	31.5	31.5	51	15.5	2	6	248	0.00	30.336 
15:40	31.2	31.2	31.2	52	15.6	2	5	248	0.00	30.336 
15:45	31.0	31.0	31.0	53	15.9	1	5	270	0.00	30.335 
15:50	30.7	30.7	30.7	55	16.5	0	3	225	0.00	30.335 
15:55	30.4	30.4	30.4	56	16.6	1	4	248	0.00	30.335 
16:00	30.3	30.3	30.3	57	16.9	0	1	248	0.00	30.337 
16:05	30.3	30.3	30.3	58	17.3	0	2	292	0.00	30.337 
16:10	30.3	30.3	30.3	58	17.3	0	3	248	0.00	30.337 
16:15	30.4	30.4	30.4	59	17.8	1	4	292	0.00	30.339 
16:20	30.6	30.6	30.6	58	17.6	1	3	45	0.00	30.339 
16:25	30.6	30.6	30.6	59	18.0	0	2	248	0.00	30.339 
16:30	30.7	30.7	30.7	58	17.7	0	3	112	0.00	30.333 
16:35	30.7	30.7	30.7	59	18.1	1	3	112	0.00	30.333 
16:40	30.7	30.7	30.7	59	18.1	1	2	112	0.00	30.333 
16:45	30.7	30.7	30.7	60	18.5	0	2	112	0.00	30.327 
16:50	30.7	30.7	30.7	58	17.7	1	4	135	0.00	30.327 
16:55	30.6	30.6	30.6	60	18.4	0	2	158	0.00	30.327 
17:00	30.6	30.6	30.6	61	18.8	0	3	112	0.00	30.321 
17:05	30.6	30.6	30.6	60	18.4	1	2	112	0.00	30.321 
17:10	30.4	30.4	30.4	60	18.2	1	3	112	0.00	30.321 
17:15	30.6	30.6	30.6	59	18.0	2	4	112	0.00	30.311 
17:20	30.6	30.6	30.6	60	18.4	1	2	112	0.00	30.311 
17:25	30.6	30.6	30.6	60	18.4	0	3	112	0.00	30.311 
17:30	30.4	30.4	30.4	60	18.2	0	2	135	0.00	30.319 
17:35	30.4	30.4	30.4	60	18.2	1	3	135	0.00	30.319 
17:40	30.3	30.3	30.3	61	18.5	1	2	112	0.00	30.319 
17:45	30.3	30.3	30.3	61	18.5	0	2	68	0.00	30.322 
17:50	30.1	30.1	30.1	61	18.3	1	3	68	0.00	30.322 
17:55	30.1	30.1	30.1	62	18.7	1	3	90	0.00	30.322 
18:00	30.1	30.1	30.1	62	18.7	1	3	112	0.00	30.321 
18:05	30.1	30.1	30.1	62	18.7	1	3	112	0.00	30.321 
18:10	30.1	30.1	30.1	62	18.7	1	5	112	0.00	30.321 
18:15	30.1	30.1	30.1	62	18.7	0	2	112	0.00	30.321 
18:20	30.1	30.1	30.1	62	18.7	1	4	112	0.00	30.321 
18:25	30.3	30.3	30.3	62	18.9	1	4	90	0.00	30.321 
18:30	30.3	30.3	30.3	62	18.9	1	3	112	0.00	30.316 
18:35	30.4	30.4	30.4	63	19.3	1	3	112	0.00	30.316 
18:40	30.4	30.4	30.4	63	19.3	1	2	90	0.00	30.316 
18:45	30.4	30.4	30.4	63	19.3	1	2	112	0.00	30.318 
18:50	30.4	30.4	30.4	63	19.3	1	3	112	0.00	30.318 
18:55	30.4	30.4	30.4	62	19.0	1	4	112	0.00	30.318 
19:00	30.6	30.6	30.6	63	19.5	0	2	112	0.00	30.319 
19:05	30.6	30.6	30.6	63	19.5	1	3	112	0.00	30.319 
19:10	30.6	30.6	30.6	63	19.5	1	5	90	0.00	30.319 
19:15	30.6	30.6	30.6	63	19.5	1	4	112	0.00	30.319 
19:20	30.7	30.7	30.7	63	19.6	1	3	112	0.00	30.319 
19:25	30.7	30.7	30.7	63	19.6	1	3	90	0.00	30.319 
19:30	30.7	30.7	30.7	63	19.6	1	3	135	0.00	30.318 
19:35	30.7	30.7	30.7	63	19.6	1	4	90	0.00	30.318 
19:40	30.7	30.7	30.7	62	19.2	1	3	135	0.00	30.318 
19:45	30.7	30.7	30.7	63	19.6	1	2	135	0.00	30.320 
19:50	30.6	30.6	30.6	63	19.5	1	2	112	0.00	30.320 
19:55	30.4	30.4	30.4	64	19.7	1	3	112	0.00	30.320 
20:00	30.3	30.3	30.3	65	20.0	1	2	135	0.00	30.313 
20:05	30.1	30.1	30.1	65	19.8	1	4	135	0.00	30.313 
20:10	30.0	30.0	30.0	65	19.7	1	4	112	0.00	30.313 
20:15	30.1	30.1	30.1	65	19.8	1	3	112	0.00	30.309 
20:20	30.1	30.1	30.1	65	19.8	1	3	135	0.00	30.309 
20:25	30.1	30.1	30.1	65	19.8	1	2	135	0.00	30.309 
20:30	30.0	30.0	30.0	66	20.0	1	4	112	0.00	30.306 
20:35	30.0	30.0	30.0	66	20.0	1	3	112	0.00	30.306 
20:40	29.8	29.8	29.8	67	20.2	1	4	135	0.00	30.306 
20:45	29.7	29.7	29.7	67	20.1	1	3	112	0.00	30.300 
20:50	29.7	29.7	29.7	68	20.5	1	4	135	0.00	30.300 
20:55	29.5	29.5	29.5	68	20.3	1	3	112	0.00	30.300 
21:00	29.5	29.5	29.5	69	20.6	1	5	112	0.00	30.295 
21:05	29.5	29.5	29.5	69	20.6	1	4	135	0.00	30.295 
21:10	29.5	29.5	29.5	69	20.6	1	4	112	0.00	30.295 
21:15	29.5	29.5	29.5	69	20.6	1	4	112	0.00	30.292 
21:20	29.4	29.4	29.4	69	20.5	1	4	135	0.00	30.292 
21:25	29.3	29.3	29.3	69	20.4	1	2	135	0.00	30.292 
21:30	29.3	29.3	29.3	69	20.4	1	3	135	0.00	30.284 
21:35	29.1	29.1	29.1	69	20.2	1	3	135	0.00	30.284 
21:40	29.1	29.1	29.1	70	20.6	0	2	112	0.00	30.284 
21:45	29.0	29.0	29.0	69	20.1	1	3	135	0.00	30.280 
21:50	29.0	29.0	29.0	70	20.5	1	3	112	0.00	30.280 
21:55	29.0	29.0	29.0	70	20.5	1	2	112	0.00	30.280 
22:00	28.8	28.8	28.8	70	20.3	1	4	135	0.00	30.276 
22:05	28.8	28.8	28.8	71	20.6	1	2	112	0.00	30.276 
22:10	28.7	28.7	28.7	71	20.5	1	3	112	0.00	30.276 
22:15	28.5	28.5	28.5	72	20.6	1	4	112	0.00	30.266 
22:20	28.5	28.5	28.5	72	20.6	1	3	112	0.00	30.266 
22:25	28.5	28.5	28.5	72	20.6	1	3	112	0.00	30.266 
22:30	28.5	28.5	28.5	72	20.6	1	3	135	0.00	30.258 
22:35	28.4	28.4	28.4	72	20.5	1	3	112	0.00	30.258 
22:40	28.5	28.5	28.5	71	20.3	1	5	112	0.00	30.258 
22:45	28.7	28.7	28.7	70	20.2	1	4	135	0.00	30.253 
22:50	28.8	28.8	28.8	69	19.9	1	4	112	0.00	30.253 
22:55	29.1	29.1	29.1	69	20.2	1	5	112	0.00	30.253 
23:00	29.3	29.3	29.3	68	20.1	2	5	112	0.00	30.250 
23:05	29.4	29.4	29.4	67	19.8	1	4	112	0.00	30.250 
23:10	29.4	29.4	29.4	67	19.8	1	5	90	0.00	30.250 
23:15	29.5	29.5	29.5	66	19.6	1	4	135	0.00	30.250 
23:20	29.7	29.7	29.7	65	19.4	1	4	112	0.00	30.250 
23:25	29.8	29.8	29.8	64	19.1	2	6	112	0.00	30.250 
23:30	30.1	30.1	30.1	63	19.0	2	7	112	0.00	30.244 
23:35	30.3	30.3	30.3	63	19.2	2	7	112	0.00	30.244 
23:40	30.3	30.3	30.3	63	19.2	3	6	112	0.00	30.244 
23:45	30.4	30.4	30.4	63	19.3	2	6	112	0.00	30.241 
23:50	30.4	30.4	30.4	62	19.0	2	4	112	0.00	30.241 
23:55	30.4	30.4	30.4	62	19.0	2	6	135	0.00	30.241 

CoCoRaHS
IN-AL-39
A2 Web Hosting
Creative Commons License
GoDaddy
Look for:

loaded 2017-12-12 07:04:19 • last modified 2010-11-18 10:43:29
Privacy PolicyDisclaimer
• wx.awcolley.com is powered by PmWiki v.2002016 •
• all content (unless otherwise noted) © 2017 A W Colley